MARK1: Marion Levee

Data processed at Wed May 22 2019 23:50


All information presented herein is the property of the government of the United States of America and may be revised or deleted at any time without prior notice.
Dissemination of this information without the expressed written consent of the Public Affairs Office, Tulsa District U.S. Army Corps of Engineers is strictly prohibited.
These data are gathered electronically and, as presented, have not undergone any form of quality control. These data are not guaranteed to be valid or correct.
Go to home page.
Go to station list.
Go to home page.

Upstream stations:

Downstream station:
Previous Day
Next Day
Current Day
    
SHEF ID:       MARK1     COTTONWOOD R AT MARION, KS
STATION TYPE:  
Regulating: Stage =    16.00, Flow =     4479

               PRECIP     STAGE  RIV-FLOW  BAT-LOAD
                   in        ft       cfs      volt
              Ccp-Rev   Ccp-Rev   Ccp-Rev   Ccp-Rev
(US/Central)
05/22 00:00      0.00     27.36     11663     12.89
05/22 01:00      0.01     27.39     11686     12.83
05/22 02:00      0.00     27.26     11587     12.83
05/22 03:00      0.00     26.74     11196     12.83
05/22 04:00      0.00     26.28     10855     12.77
05/22 05:00      0.00     25.72     10446     12.77
05/22 06:00      0.00     24.73      9739     12.77
05/22 07:00      0.00     23.62      8973     12.71
05/22 08:00      0.00     22.39      8157     12.83
05/22 09:00      0.00     21.31      7468     13.53
05/22 10:00      0.00     20.00      6669     14.00
05/22 11:00      0.00     18.64      5882     13.77
05/22 12:00      0.00     17.53      5272     13.59
05/22 13:00      0.00     16.34      4651     13.59
05/22 14:00      0.00     15.42      4194     13.71
05/22 15:00      0.00     14.69      3846     13.48
05/22 16:00      0.00     14.19      3616     13.83
05/22 17:00      0.00     13.66      3379     13.65
05/22 18:00      0.00     13.28      3213     13.42
05/22 19:00      0.00     12.97      3080     13.18
05/22 20:00      0.00     12.64      2942     13.12
05/22 21:00      0.00     12.18      2754     13.07
05/22 22:00      0.00     11.88      2634     13.00
05/22 23:00      0.00     11.71      2567     13.00